Time;durP1;ratioP1;P1;durP2;ratioP2;P2;SDS_P1;SDS_P2;PMS_P1;PMS_P2;Temp;Humidity;BMP_temperature;BMP_pressure;BME280_temperature;BME280_humidity;BME280_pressure;Samples;Min_cycle;Max_cycle;Signal;HPM_P1;HPM_P2
2023/12/25 00:00:07;;;;;;;8.80;8.70;;;10.80;99.90;;;;;;5035931;28;20453;-72
2023/12/25 00:02:34;;;;;;;8.37;8.27;;;10.80;99.90;;;;;;5038577;28;20526;-73
2023/12/25 00:05:01;;;;;;;8.13;8.03;;;10.80;99.90;;;;;;5046252;28;20496;-73
2023/12/25 00:07:28;;;;;;;7.80;7.70;;;10.80;99.90;;;;;;5045929;28;20472;-73
2023/12/25 00:09:55;;;;;;;8.47;8.37;;;10.80;99.90;;;;;;5037957;28;20483;-73
2023/12/25 00:12:24;;;;;;;7.83;7.73;;;10.80;99.90;;;;;;5046553;28;20457;-71
2023/12/25 00:14:50;;;;;;;8.03;7.93;;;10.80;99.90;;;;;;5047661;28;20551;-74
2023/12/25 00:17:18;;;;;;;8.53;8.43;;;10.80;99.90;;;;;;5033234;28;20463;-71
2023/12/25 00:19:45;;;;;;;7.93;7.83;;;10.80;99.90;;;;;;5042749;28;20457;-73
2023/12/25 00:22:11;;;;;;;8.20;8.10;;;10.80;99.90;;;;;;5043845;28;20462;-71
2023/12/25 00:24:40;;;;;;;8.03;7.93;;;10.90;99.90;;;;;;5049367;28;20913;-76
2023/12/25 00:27:07;;;;;;;8.10;8.00;;;10.90;99.90;;;;;;5047619;28;20551;-76
2023/12/25 00:29:35;;;;;;;8.23;8.13;;;10.90;99.90;;;;;;5034901;28;20954;-73
2023/12/25 00:32:02;;;;;;;7.93;7.83;;;10.90;99.90;;;;;;5041345;28;20462;-72
2023/12/25 00:34:29;;;;;;;7.57;7.47;;;10.90;99.90;;;;;;5049164;28;20468;-76
2023/12/25 00:36:57;;;;;;;8.60;8.50;;;10.90;99.90;;;;;;5049061;28;20460;-74
2023/12/25 00:39:24;;;;;;;8.63;8.53;;;10.90;99.90;;;;;;5046278;28;20465;-72
2023/12/25 00:41:51;;;;;;;8.63;8.53;;;10.90;99.90;;;;;;5048331;28;20819;-75
2023/12/25 00:44:18;;;;;;;8.53;8.43;;;10.90;99.90;;;;;;5041053;28;20844;-75
2023/12/25 00:46:46;;;;;;;8.77;8.67;;;10.90;99.90;;;;;;5049040;28;20452;-73
2023/12/25 00:49:14;;;;;;;8.70;8.60;;;10.90;99.90;;;;;;5036544;28;20454;-73
2023/12/25 00:51:40;;;;;;;8.23;8.13;;;10.90;99.90;;;;;;5045865;28;20506;-74
2023/12/25 00:54:07;;;;;;;8.33;8.23;;;10.90;99.90;;;;;;5043550;28;20469;-73
2023/12/25 00:56:34;;;;;;;8.63;8.53;;;10.90;99.90;;;;;;5044997;28;20452;-73
2023/12/25 00:59:01;;;;;;;9.03;8.93;;;10.90;99.90;;;;;;5041528;28;20464;-73
2023/12/25 01:01:27;;;;;;;8.43;8.33;;;10.90;99.90;;;;;;5047195;28;20828;-73
2023/12/25 01:03:55;;;;;;;9.60;9.40;;;10.90;99.90;;;;;;5036991;28;20938;-77
2023/12/25 01:06:22;;;;;;;9.53;9.33;;;10.90;99.90;;;;;;5048305;28;20449;-77
2023/12/25 01:08:49;;;;;;;9.07;8.97;;;10.90;99.90;;;;;;5048792;28;20832;-74
2023/12/25 01:11:16;;;;;;;9.63;9.43;;;10.90;99.90;;;;;;5048823;28;20483;-73
2023/12/25 01:13:43;;;;;;;9.70;9.50;;;10.90;99.90;;;;;;5032965;28;20912;-75
2023/12/25 01:16:10;;;;;;;9.57;9.37;;;10.90;99.90;;;;;;5041126;28;20810;-75
2023/12/25 01:18:37;;;;;;;9.70;9.50;;;11.00;99.90;;;;;;5040135;28;20926;-74
2023/12/25 01:21:06;;;;;;;9.80;9.60;;;11.00;99.90;;;;;;5044048;28;20480;-74
2023/12/25 01:23:33;;;;;;;8.93;8.83;;;11.00;99.90;;;;;;5044594;28;20459;-74
2023/12/25 01:26:00;;;;;;;9.97;9.77;;;11.00;99.90;;;;;;5047062;28;20475;-73
2023/12/25 01:28:27;;;;;;;9.63;9.43;;;11.00;99.90;;;;;;5046710;28;20460;-73
2023/12/25 01:30:54;;;;;;;9.60;9.40;;;11.00;99.90;;;;;;5039099;28;20483;-74
2023/12/25 01:33:20;;;;;;;10.80;10.60;;;11.00;99.90;;;;;;5038619;28;20452;-73
2023/12/25 01:35:47;;;;;;;11.00;10.80;;;11.00;99.90;;;;;;5046555;28;20574;-74
2023/12/25 01:38:15;;;;;;;10.33;10.13;;;11.10;99.90;;;;;;5048251;28;20444;-76
2023/12/25 01:40:44;;;;;;;10.67;10.47;;;11.10;99.90;;;;;;5045136;28;20459;-75
2023/12/25 01:43:11;;;;;;;10.73;10.53;;;11.10;99.90;;;;;;5038238;28;20457;-76
2023/12/25 01:45:38;;;;;;;10.77;10.57;;;11.10;99.90;;;;;;5042478;28;20897;-76
2023/12/25 01:48:06;;;;;;;10.60;10.40;;;11.10;99.90;;;;;;5036424;28;20924;-73
2023/12/25 01:50:33;;;;;;;9.70;9.50;;;11.10;99.90;;;;;;5048442;28;20494;-73
2023/12/25 01:53:02;;;;;;;9.77;9.57;;;11.10;99.90;;;;;;5046098;28;20461;-73
2023/12/25 01:55:30;;;;;;;10.93;10.73;;;11.10;99.90;;;;;;5043549;28;20575;-72
2023/12/25 01:57:57;;;;;;;10.97;10.77;;;11.10;99.90;;;;;;5045827;28;20461;-74
2023/12/25 02:00:24;;;;;;;11.43;11.13;;;11.10;99.90;;;;;;5041291;28;20502;-72
2023/12/25 02:02:52;;;;;;;11.00;10.80;;;11.10;99.90;;;;;;5036537;28;20468;-72
2023/12/25 02:05:19;;;;;;;10.87;10.67;;;11.10;99.90;;;;;;5043529;28;20498;-72
2023/12/25 02:07:47;;;;;;;10.77;10.57;;;11.10;99.90;;;;;;5047674;28;20460;-73
2023/12/25 02:10:26;;;;;;;9.70;9.50;;;11.10;99.90;;;;;;5047624;28;20927;-72
2023/12/25 02:12:55;;;;;;;10.40;10.20;;;11.10;99.90;;;;;;5044195;28;20519;-72
2023/12/25 02:15:22;;;;;;;10.93;10.73;;;11.10;99.90;;;;;;5040161;28;20461;-71
2023/12/25 02:17:51;;;;;;;10.60;10.40;;;11.00;99.90;;;;;;5047150;28;20454;-73
2023/12/25 02:20:19;;;;;;;11.93;11.63;;;11.10;99.90;;;;;;5043676;28;20674;-72
2023/12/25 02:22:46;;;;;;;11.67;11.37;;;11.10;99.90;;;;;;5036072;28;20456;-75
2023/12/25 02:25:16;;;;;;;11.37;11.13;;;11.10;99.90;;;;;;5042391;28;20477;-72
2023/12/25 02:27:44;;;;;;;11.00;10.80;;;11.10;99.90;;;;;;5041978;28;20455;-73
2023/12/25 02:30:11;;;;;;;10.90;10.70;;;11.10;99.90;;;;;;5046903;28;20484;-74
2023/12/25 02:32:38;;;;;;;10.50;10.30;;;11.10;99.90;;;;;;5047112;28;20460;-74
2023/12/25 02:35:05;;;;;;;10.50;10.30;;;11.10;99.90;;;;;;5035366;28;20492;-72
2023/12/25 02:37:32;;;;;;;10.10;9.90;;;11.10;99.90;;;;;;5039280;28;20470;-73
2023/12/25 02:39:59;;;;;;;10.33;10.13;;;11.10;99.90;;;;;;5046392;28;20457;-72
2023/12/25 02:42:26;;;;;;;10.87;10.67;;;11.10;99.90;;;;;;5047522;28;20461;-74
2023/12/25 02:44:54;;;;;;;10.60;10.40;;;11.10;99.90;;;;;;5041830;28;20472;-72
2023/12/25 02:47:21;;;;;;;10.33;10.13;;;11.10;99.90;;;;;;5043889;28;20459;-72
2023/12/25 02:49:48;;;;;;;10.43;10.23;;;11.10;99.90;;;;;;5041185;28;20518;-75
2023/12/25 02:52:15;;;;;;;10.40;10.20;;;11.10;99.90;;;;;;5037376;28;20460;-72
2023/12/25 02:54:42;;;;;;;9.87;9.67;;;11.10;99.90;;;;;;5036525;28;20488;-74
2023/12/25 02:57:09;;;;;;;10.20;10.00;;;11.10;99.90;;;;;;5046923;28;20464;-73
2023/12/25 02:59:36;;;;;;;10.00;9.80;;;11.10;99.90;;;;;;5039773;28;20801;-72
2023/12/25 03:02:05;;;;;;;11.10;10.90;;;11.10;99.90;;;;;;5043596;28;20445;-74
2023/12/25 03:04:33;;;;;;;10.30;10.10;;;11.10;99.90;;;;;;5038616;28;20479;-72
2023/12/25 03:06:59;;;;;;;11.80;11.50;;;11.10;99.90;;;;;;5038281;28;21110;-74
2023/12/25 03:09:26;;;;;;;11.50;11.20;;;11.10;99.90;;;;;;5038260;28;20463;-71
2023/12/25 03:11:53;;;;;;;11.50;11.20;;;11.10;99.90;;;;;;5044880;28;20457;-72
2023/12/25 03:14:20;;;;;;;11.20;11.00;;;11.00;99.90;;;;;;5046514;28;20456;-73
2023/12/25 03:16:47;;;;;;;11.20;11.00;;;11.10;99.90;;;;;;5039735;28;20461;-72
2023/12/25 03:19:15;;;;;;;10.87;10.67;;;11.10;99.90;;;;;;5046945;28;20461;-72
2023/12/25 03:21:42;;;;;;;11.50;11.20;;;11.10;99.90;;;;;;5039747;28;20575;-72
2023/12/25 03:24:09;;;;;;;11.67;11.37;;;11.10;99.90;;;;;;5031211;28;20849;-72
2023/12/25 03:26:35;;;;;;;11.47;11.17;;;11.10;99.90;;;;;;5046661;28;20947;-74
2023/12/25 03:29:03;;;;;;;11.13;10.93;;;11.10;99.90;;;;;;5046795;28;20460;-73
2023/12/25 03:31:30;;;;;;;11.50;11.20;;;11.10;99.90;;;;;;5046553;28;20547;-72
2023/12/25 03:33:58;;;;;;;11.70;11.40;;;11.10;99.90;;;;;;5036933;28;20466;-72
2023/12/25 03:36:26;;;;;;;10.90;10.70;;;11.20;99.90;;;;;;5029450;28;20462;-76
2023/12/25 03:38:53;;;;;;;10.80;10.60;;;11.10;99.90;;;;;;5046618;28;20516;-72
2023/12/25 03:41:21;;;;;;;10.87;10.67;;;11.10;99.90;;;;;;5046659;28;20457;-70
2023/12/25 03:43:48;;;;;;;10.73;10.53;;;11.20;99.90;;;;;;5043957;28;21046;-70
2023/12/25 03:46:14;;;;;;;11.13;10.93;;;11.20;99.90;;;;;;5046513;28;20491;-72
2023/12/25 03:48:41;;;;;;;10.20;10.00;;;11.20;99.90;;;;;;5041721;28;20977;-72
2023/12/25 03:51:08;;;;;;;11.13;10.93;;;11.10;99.90;;;;;;5032936;28;20554;-74
2023/12/25 03:53:37;;;;;;;12.07;11.77;;;11.10;99.90;;;;;;5045003;28;20462;-72
2023/12/25 03:56:04;;;;;;;11.57;11.27;;;11.10;99.90;;;;;;5050171;28;20463;-73
2023/12/25 03:58:31;;;;;;;12.03;11.73;;;11.10;99.90;;;;;;5048415;28;21022;-72
2023/12/25 04:00:58;;;;;;;12.23;11.93;;;11.20;99.90;;;;;;5038478;28;20842;-72
2023/12/25 04:03:25;;;;;;;11.83;11.53;;;11.20;99.90;;;;;;5049673;28;20821;-73
2023/12/25 04:05:52;;;;;;;11.87;11.57;;;11.20;99.90;;;;;;5049943;28;20814;-72
2023/12/25 04:08:19;;;;;;;11.50;11.20;;;11.20;99.90;;;;;;5042931;28;20463;-72
2023/12/25 04:10:47;;;;;;;11.87;11.57;;;11.20;99.90;;;;;;5042693;28;21029;-72
2023/12/25 04:13:14;;;;;;;12.70;12.40;;;11.20;99.90;;;;;;5049998;28;20456;-72
2023/12/25 04:15:41;;;;;;;12.47;12.17;;;11.20;99.90;;;;;;5040055;28;20548;-72
2023/12/25 04:18:08;;;;;;;12.43;12.13;;;11.10;99.90;;;;;;5048987;28;20547;-72
2023/12/25 04:20:35;;;;;;;12.67;12.37;;;11.20;99.90;;;;;;5035870;28;20464;-73
2023/12/25 04:23:02;;;;;;;12.00;11.70;;;11.20;99.90;;;;;;5041302;28;20457;-72
2023/12/25 04:25:28;;;;;;;13.40;13.00;;;11.20;99.90;;;;;;5047893;28;20483;-75
2023/12/25 04:27:57;;;;;;;12.37;12.07;;;11.20;99.90;;;;;;5042035;28;20510;-74
2023/12/25 04:30:24;;;;;;;12.40;12.10;;;11.20;99.90;;;;;;5047100;28;20471;-72
2023/12/25 04:32:50;;;;;;;12.30;12.00;;;11.20;99.90;;;;;;5042184;28;20474;-73
2023/12/25 04:35:17;;;;;;;13.40;13.00;;;11.20;99.90;;;;;;5049602;28;20521;-72
2023/12/25 04:37:44;;;;;;;13.17;12.77;;;11.20;99.90;;;;;;5047369;28;20857;-72
2023/12/25 04:40:12;;;;;;;12.83;12.53;;;11.20;99.90;;;;;;5045319;28;20777;-73
2023/12/25 04:42:39;;;;;;;13.37;12.97;;;11.20;99.90;;;;;;5034763;28;20454;-76
2023/12/25 04:45:08;;;;;;;13.03;12.73;;;11.30;99.90;;;;;;5046091;28;20844;-72
2023/12/25 04:47:35;;;;;;;12.87;12.57;;;11.30;99.90;;;;;;5049153;28;20472;-72
2023/12/25 04:50:02;;;;;;;13.83;13.43;;;11.30;99.90;;;;;;5044332;28;20460;-72
2023/12/25 04:52:29;;;;;;;14.03;13.63;;;11.30;99.90;;;;;;5048073;28;20460;-72
2023/12/25 04:54:56;;;;;;;14.20;13.80;;;11.20;99.90;;;;;;5040664;28;20479;-73
2023/12/25 04:57:23;;;;;;;14.03;13.63;;;11.20;99.90;;;;;;5041531;28;20472;-72
2023/12/25 04:59:50;;;;;;;14.10;13.70;;;11.20;99.90;;;;;;5043647;28;20631;-72
2023/12/25 05:02:18;;;;;;;13.30;12.90;;;11.20;99.90;;;;;;5037013;28;20813;-72
2023/12/25 05:04:45;;;;;;;13.63;13.23;;;11.10;99.90;;;;;;5047902;28;20503;-73
2023/12/25 05:07:12;;;;;;;13.43;13.03;;;11.10;99.90;;;;;;5048935;28;20468;-72
2023/12/25 05:09:39;;;;;;;13.63;13.23;;;11.10;99.90;;;;;;5041041;28;20664;-72
2023/12/25 05:12:06;;;;;;;13.37;12.97;;;11.10;99.90;;;;;;5044780;28;20460;-75
2023/12/25 05:14:33;;;;;;;13.50;13.10;;;11.00;99.90;;;;;;5044258;28;20465;-71
2023/12/25 05:17:00;;;;;;;12.87;12.57;;;11.00;99.90;;;;;;5047000;28;20810;-73
2023/12/25 05:19:29;;;;;;;12.73;12.43;;;11.00;99.90;;;;;;5038525;28;20540;-73
2023/12/25 05:21:56;;;;;;;11.70;11.40;;;11.00;99.90;;;;;;5033892;28;20822;-73
2023/12/25 05:24:22;;;;;;;12.80;12.50;;;11.00;99.90;;;;;;5046835;28;20947;-72
2023/12/25 05:26:50;;;;;;;11.90;11.60;;;11.00;99.90;;;;;;5048850;28;20502;-75
2023/12/25 05:29:17;;;;;;;11.80;11.50;;;11.00;99.90;;;;;;5043434;28;20479;-71
2023/12/25 05:31:44;;;;;;;11.27;11.07;;;11.00;99.90;;;;;;5035794;28;20465;-72
2023/12/25 05:34:10;;;;;;;11.63;11.33;;;11.00;99.90;;;;;;5048629;28;20822;-73
2023/12/25 05:36:38;;;;;;;11.67;11.37;;;11.00;99.90;;;;;;5048869;28;20456;-75
2023/12/25 05:39:06;;;;;;;11.20;11.00;;;11.00;99.90;;;;;;5037170;28;20460;-72
2023/12/25 05:41:33;;;;;;;10.93;10.73;;;11.00;99.90;;;;;;5047235;28;20452;-72
2023/12/25 05:43:59;;;;;;;11.17;10.97;;;10.90;99.90;;;;;;5041471;28;20470;-75
2023/12/25 05:46:27;;;;;;;10.93;10.73;;;11.00;99.90;;;;;;5048405;28;20522;-73
2023/12/25 05:48:53;;;;;;;10.63;10.43;;;11.00;99.90;;;;;;5047637;28;20779;-73
2023/12/25 05:51:21;;;;;;;11.20;11.00;;;11.00;99.90;;;;;;5032613;28;20547;-73
2023/12/25 05:53:49;;;;;;;10.60;10.40;;;11.00;99.90;;;;;;5043537;28;20456;-75
2023/12/25 05:56:16;;;;;;;10.80;10.60;;;11.00;99.90;;;;;;5044426;28;20464;-74
2023/12/25 05:58:43;;;;;;;10.23;10.03;;;11.00;99.90;;;;;;5041998;28;20936;-71
2023/12/25 06:01:12;;;;;;;10.30;10.10;;;11.00;99.90;;;;;;5041027;28;20535;-76
2023/12/25 06:03:41;;;;;;;9.53;9.33;;;11.00;99.90;;;;;;5039693;28;20994;-73
2023/12/25 06:06:08;;;;;;;10.17;9.97;;;11.00;99.90;;;;;;5034332;28;20495;-73
2023/12/25 06:08:35;;;;;;;9.90;9.70;;;11.00;99.90;;;;;;5042094;28;20576;-76
2023/12/25 06:11:05;;;;;;;9.77;9.57;;;11.00;99.90;;;;;;5038459;28;20784;-73
2023/12/25 06:13:32;;;;;;;9.97;9.77;;;11.00;99.90;;;;;;5045364;28;20457;-73
2023/12/25 06:15:59;;;;;;;9.90;9.70;;;11.00;99.90;;;;;;5040508;28;20774;-75
2023/12/25 06:18:27;;;;;;;9.87;9.67;;;11.00;99.90;;;;;;5039064;28;20463;-73
2023/12/25 06:20:54;;;;;;;10.20;10.00;;;11.00;99.90;;;;;;5038341;28;21177;-76
2023/12/25 06:23:21;;;;;;;9.37;9.17;;;11.00;99.90;;;;;;5046362;28;20544;-71
2023/12/25 06:25:50;;;;;;;9.20;9.10;;;11.00;99.90;;;;;;5047586;28;20487;-74
2023/12/25 06:28:19;;;;;;;9.17;9.07;;;11.00;99.90;;;;;;5043780;28;20569;-73
2023/12/25 06:30:46;;;;;;;9.60;9.40;;;11.00;99.90;;;;;;5047334;28;20476;-76
2023/12/25 06:33:13;;;;;;;9.83;9.63;;;11.00;99.90;;;;;;5042463;28;20463;-74
2023/12/25 06:35:40;;;;;;;9.50;9.30;;;11.00;99.90;;;;;;5035871;28;20495;-72
2023/12/25 06:38:07;;;;;;;8.50;8.40;;;11.00;99.90;;;;;;5040199;28;20465;-74
2023/12/25 06:40:34;;;;;;;8.77;8.67;;;11.00;99.90;;;;;;5034721;28;20823;-72
2023/12/25 06:43:00;;;;;;;9.93;9.73;;;11.00;99.90;;;;;;5036371;28;20785;-77
2023/12/25 06:45:28;;;;;;;9.93;9.73;;;11.00;99.90;;;;;;5039780;28;20461;-74
2023/12/25 06:47:55;;;;;;;9.93;9.73;;;11.10;99.90;;;;;;5042431;28;20461;-74
2023/12/25 06:50:22;;;;;;;9.77;9.57;;;11.10;99.90;;;;;;5036498;28;20468;-72
2023/12/25 06:52:49;;;;;;;9.97;9.77;;;11.10;99.90;;;;;;5044141;28;20460;-72
2023/12/25 06:55:16;;;;;;;9.20;9.10;;;11.00;99.90;;;;;;5041185;28;20484;-73
2023/12/25 06:57:43;;;;;;;9.80;9.60;;;11.10;99.90;;;;;;5039325;28;20820;-74
2023/12/25 07:00:12;;;;;;;10.00;9.80;;;11.10;99.90;;;;;;5042810;28;20487;-74
2023/12/25 07:02:41;;;;;;;10.30;10.10;;;11.10;99.90;;;;;;5041220;28;20457;-75
2023/12/25 07:05:09;;;;;;;9.07;8.97;;;11.10;99.90;;;;;;5039176;28;20560;-73
2023/12/25 07:07:35;;;;;;;10.10;9.90;;;11.10;99.90;;;;;;5037053;28;20907;-74
2023/12/25 07:10:04;;;;;;;8.87;8.77;;;11.10;99.90;;;;;;5045890;28;20467;-72
2023/12/25 07:12:31;;;;;;;9.73;9.53;;;11.10;99.90;;;;;;5032241;28;20462;-72
2023/12/25 07:14:57;;;;;;;9.97;9.77;;;11.10;99.90;;;;;;5044807;28;20472;-73
2023/12/25 07:17:24;;;;;;;8.90;8.80;;;11.10;99.90;;;;;;5046889;28;20456;-78
2023/12/25 07:19:53;;;;;;;9.23;9.07;;;11.10;99.90;;;;;;5035766;28;20451;-73
2023/12/25 07:22:20;;;;;;;9.43;9.23;;;11.10;99.90;;;;;;5041375;28;20464;-73
2023/12/25 07:24:47;;;;;;;9.27;9.13;;;11.10;99.90;;;;;;5040994;28;20460;-73
2023/12/25 07:27:14;;;;;;;10.10;9.90;;;11.10;99.90;;;;;;5050513;28;20492;-73
2023/12/25 07:29:41;;;;;;;9.83;9.63;;;11.20;99.90;;;;;;5037315;28;21045;-73
2023/12/25 07:32:09;;;;;;;9.37;9.17;;;11.20;99.90;;;;;;5048427;28;20491;-72
2023/12/25 07:34:36;;;;;;;10.03;9.83;;;11.20;99.90;;;;;;5044188;28;20476;-73
2023/12/25 07:37:04;;;;;;;9.00;8.90;;;11.20;99.90;;;;;;5045617;28;20586;-73
2023/12/25 07:39:31;;;;;;;8.67;8.57;;;11.20;99.90;;;;;;5047616;28;20449;-72
2023/12/25 07:41:59;;;;;;;8.80;8.70;;;11.20;99.90;;;;;;5050459;28;20464;-74
2023/12/25 07:44:26;;;;;;;9.20;9.07;;;11.20;99.90;;;;;;5037994;28;20463;-74
2023/12/25 07:46:53;;;;;;;9.00;8.90;;;11.20;99.90;;;;;;5046709;28;20492;-74
2023/12/25 07:49:21;;;;;;;9.87;9.67;;;11.20;99.90;;;;;;5032128;28;20915;-73
2023/12/25 07:51:48;;;;;;;8.80;8.70;;;11.20;99.90;;;;;;5041585;28;20549;-76
2023/12/25 07:54:16;;;;;;;7.90;7.80;;;11.30;99.90;;;;;;5049891;28;20448;-73
2023/12/25 07:56:43;;;;;;;9.10;9.00;;;11.20;99.90;;;;;;5036306;28;20887;-75
2023/12/25 07:59:11;;;;;;;8.37;8.27;;;11.30;99.90;;;;;;5045094;28;20465;-76
2023/12/25 08:01:38;;;;;;;8.23;8.13;;;11.30;99.90;;;;;;5050698;28;20599;-74
2023/12/25 08:04:05;;;;;;;7.77;7.67;;;11.30;99.90;;;;;;5042941;28;20460;-73
2023/12/25 08:06:32;;;;;;;8.23;8.13;;;11.30;99.90;;;;;;5032999;28;21394;-73
2023/12/25 08:08:59;;;;;;;8.13;8.03;;;11.30;99.90;;;;;;5038649;28;20817;-73
2023/12/25 08:11:28;;;;;;;7.27;7.17;;;11.30;99.90;;;;;;5050643;28;20467;-73
2023/12/25 08:13:54;;;;;;;6.97;6.87;;;11.30;99.90;;;;;;5050022;28;20459;-76
2023/12/25 08:16:22;;;;;;;6.73;6.63;;;11.30;99.90;;;;;;5041400;28;20961;-73
2023/12/25 08:18:49;;;;;;;7.13;7.03;;;11.40;99.90;;;;;;5046477;28;20472;-74
2023/12/25 08:21:17;;;;;;;6.70;6.60;;;11.40;99.90;;;;;;5040473;28;20947;-74
2023/12/25 08:23:44;;;;;;;5.60;5.50;;;11.40;99.90;;;;;;5039793;28;20922;-73
2023/12/25 08:26:11;;;;;;;5.97;5.87;;;11.50;99.90;;;;;;5042862;28;20488;-74
2023/12/25 08:28:40;;;;;;;5.83;5.73;;;11.50;99.90;;;;;;5039849;28;20974;-73
2023/12/25 08:31:07;;;;;;;5.70;5.60;;;11.50;99.90;;;;;;5049779;28;20481;-74
2023/12/25 08:33:35;;;;;;;5.80;5.70;;;11.60;99.90;;;;;;5042497;28;20546;-73
2023/12/25 08:36:03;;;;;;;5.43;5.33;;;11.60;99.90;;;;;;5047423;28;20505;-76
2023/12/25 08:38:30;;;;;;;4.90;4.90;;;11.60;99.90;;;;;;5045666;28;20555;-75
2023/12/25 08:40:58;;;;;;;4.37;4.37;;;11.60;99.90;;;;;;5034325;28;20453;-73
2023/12/25 08:43:24;;;;;;;4.63;4.63;;;11.60;99.90;;;;;;5049919;28;20460;-77
2023/12/25 08:45:53;;;;;;;4.20;4.20;;;11.70;99.90;;;;;;5049135;28;20461;-73
2023/12/25 08:48:20;;;;;;;4.10;4.10;;;11.70;99.90;;;;;;5047289;28;20464;-76
2023/12/25 08:50:46;;;;;;;3.70;3.70;;;11.70;99.90;;;;;;5033496;28;20931;-72
2023/12/25 08:53:13;;;;;;;3.87;3.87;;;11.60;99.90;;;;;;5049332;28;20452;-72
2023/12/25 08:55:41;;;;;;;3.50;3.50;;;11.60;99.90;;;;;;5046523;28;20957;-75
2023/12/25 08:58:08;;;;;;;3.90;3.90;;;11.70;99.90;;;;;;5042983;28;20466;-73
2023/12/25 09:00:34;;;;;;;3.40;3.40;;;11.70;99.90;;;;;;5037799;28;20460;-73
2023/12/25 09:03:03;;;;;;;2.70;2.70;;;11.70;99.90;;;;;;5048212;28;20458;-73
2023/12/25 09:05:30;;;;;;;2.70;2.70;;;11.70;99.90;;;;;;5049434;28;20783;-75
2023/12/25 09:07:57;;;;;;;2.57;2.57;;;11.80;99.90;;;;;;5042507;28;21014;-77
2023/12/25 09:10:24;;;;;;;2.10;2.10;;;11.80;99.90;;;;;;5044707;28;20980;-73
2023/12/25 09:12:51;;;;;;;1.90;1.90;;;11.80;99.90;;;;;;5042797;28;20805;-73
2023/12/25 09:15:18;;;;;;;2.03;2.03;;;11.80;99.90;;;;;;5042238;28;20482;-74
2023/12/25 09:17:47;;;;;;;1.80;1.80;;;11.80;99.90;;;;;;5031362;28;20955;-75
2023/12/25 09:20:15;;;;;;;1.70;1.70;;;11.80;99.90;;;;;;5035451;28;20456;-74
2023/12/25 09:22:41;;;;;;;1.70;1.70;;;11.80;99.90;;;;;;5043513;28;20456;-74
2023/12/25 09:25:08;;;;;;;2.07;2.07;;;11.80;99.90;;;;;;5045249;28;20665;-75
2023/12/25 09:27:35;;;;;;;1.93;1.93;;;11.70;99.90;;;;;;5034527;28;20504;-73
2023/12/25 09:30:02;;;;;;;2.07;2.07;;;11.60;99.90;;;;;;5041967;28;20483;-72
2023/12/25 09:32:29;;;;;;;2.27;2.27;;;11.60;99.90;;;;;;5033592;28;20955;-75
2023/12/25 09:34:56;;;;;;;2.40;2.40;;;11.60;99.90;;;;;;5031740;28;20492;-72
2023/12/25 09:37:25;;;;;;;2.77;2.77;;;11.50;99.90;;;;;;5026140;28;20477;-75
2023/12/25 09:39:53;;;;;;;2.67;2.67;;;11.40;99.90;;;;;;5029099;28;20559;-75
2023/12/25 09:42:20;;;;;;;2.30;2.30;;;11.40;99.90;;;;;;5024988;28;20477;-72
2023/12/25 09:44:49;;;;;;;2.30;2.30;;;11.40;99.90;;;;;;5027053;28;20457;-72
2023/12/25 09:47:18;;;;;;;2.40;2.40;;;11.50;99.90;;;;;;5036737;28;20994;-74
2023/12/25 09:49:47;;;;;;;2.13;2.13;;;11.40;99.90;;;;;;5033236;28;20472;-72
2023/12/25 09:52:14;;;;;;;2.23;2.23;;;11.50;99.90;;;;;;5028040;28;20487;-72
2023/12/25 09:54:44;;;;;;;2.27;2.27;;;11.50;99.90;;;;;;5020495;28;20468;-73
2023/12/25 09:57:13;;;;;;;2.30;2.30;;;11.50;99.90;;;;;;5027418;28;20700;-72
2023/12/25 09:59:41;;;;;;;2.00;2.00;;;11.50;99.90;;;;;;5030495;28;20486;-73
2023/12/25 10:02:10;;;;;;;2.20;2.20;;;11.50;99.90;;;;;;5035572;28;20492;-72
2023/12/25 10:04:40;;;;;;;1.90;1.90;;;11.60;99.90;;;;;;5033006;28;20492;-75
2023/12/25 10:07:07;;;;;;;1.93;1.93;;;11.60;99.90;;;;;;5034465;28;20493;-72
2023/12/25 10:09:34;;;;;;;2.00;2.00;;;11.70;99.90;;;;;;5034326;28;20469;-71
2023/12/25 10:12:02;;;;;;;1.47;1.47;;;11.70;99.90;;;;;;5035017;28;20460;-72
2023/12/25 10:14:29;;;;;;;1.40;1.40;;;11.70;99.90;;;;;;5025422;28;20951;-73
2023/12/25 10:16:58;;;;;;;1.80;1.80;;;11.60;99.90;;;;;;5032290;28;21012;-74
2023/12/25 10:19:25;;;;;;;1.70;1.70;;;11.70;99.90;;;;;;5032988;28;20456;-71
2023/12/25 10:21:53;;;;;;;1.67;1.67;;;11.70;99.90;;;;;;5033815;28;20465;-73
2023/12/25 10:24:26;;;;;;;1.47;1.47;;;11.60;99.90;;;;;;5033083;28;20513;-73
2023/12/25 10:26:57;;;;;;;1.30;1.30;;;11.70;99.90;;;;;;5030600;28;20489;-76
2023/12/25 10:29:35;;;;;;;1.13;1.13;;;11.70;99.90;;;;;;5026211;28;20787;-72
2023/12/25 10:32:18;;;;;;;1.60;1.60;;;11.60;99.90;;;;;;5034567;28;20475;-73
2023/12/25 10:34:45;;;;;;;1.57;1.57;;;11.70;99.90;;;;;;5032789;28;20489;-73
2023/12/25 10:37:16;;;;;;;1.33;1.33;;;11.70;99.90;;;;;;5031096;28;20961;-73
2023/12/25 10:39:43;;;;;;;1.53;1.53;;;11.70;99.90;;;;;;5033284;28;21036;-71
2023/12/25 10:42:12;;;;;;;1.37;1.37;;;11.70;99.90;;;;;;5032970;28;20473;-72
2023/12/25 10:44:45;;;;;;;1.30;1.30;;;11.70;99.90;;;;;;5026494;28;20469;-73
2023/12/25 10:47:14;;;;;;;1.20;1.20;;;11.60;99.90;;;;;;5028541;28;20483;-75
2023/12/25 10:49:42;;;;;;;1.50;1.50;;;11.60;99.90;;;;;;5033369;28;20499;-71
2023/12/25 10:52:10;;;;;;;1.30;1.30;;;11.60;99.90;;;;;;5031670;28;21048;-72
2023/12/25 10:54:38;;;;;;;1.50;1.50;;;11.60;99.90;;;;;;5034422;28;20468;-73
2023/12/25 10:57:06;;;;;;;1.60;1.60;;;11.70;99.90;;;;;;5027196;28;20571;-75
2023/12/25 10:59:39;;;;;;;1.60;1.60;;;11.70;99.90;;;;;;5029302;28;20458;-73
2023/12/25 11:02:12;;;;;;;1.73;1.73;;;11.80;99.90;;;;;;5031519;28;20461;-73
2023/12/25 11:04:40;;;;;;;1.50;1.50;;;11.70;99.90;;;;;;5035180;28;20460;-73
2023/12/25 11:07:07;;;;;;;1.60;1.60;;;11.70;99.90;;;;;;5034177;28;20545;-74
2023/12/25 11:09:35;;;;;;;1.47;1.47;;;11.70;99.90;;;;;;5028860;28;20581;-72
2023/12/25 11:12:02;;;;;;;1.60;1.60;;;11.80;99.90;;;;;;5027256;28;20461;-73
2023/12/25 11:14:30;;;;;;;1.73;1.73;;;11.80;99.90;;;;;;5028915;28;20461;-72
2023/12/25 11:16:57;;;;;;;1.53;1.53;;;11.70;99.90;;;;;;5034787;28;20826;-76
2023/12/25 11:19:25;;;;;;;1.73;1.73;;;11.80;99.90;;;;;;5035967;28;20473;-73
2023/12/25 11:21:53;;;;;;;1.50;1.50;;;11.80;99.90;;;;;;5031608;28;20865;-72
2023/12/25 11:24:20;;;;;;;1.50;1.50;;;11.80;99.90;;;;;;5031822;28;20498;-72
2023/12/25 11:26:47;;;;;;;1.50;1.50;;;11.80;99.90;;;;;;5022932;28;20945;-73
2023/12/25 11:29:17;;;;;;;1.60;1.60;;;11.90;99.90;;;;;;5031961;28;20508;-75
2023/12/25 11:31:46;;;;;;;2.20;2.20;;;11.90;99.90;;;;;;5031894;28;20521;-73
2023/12/25 11:34:21;;;;;;;1.80;1.80;;;12.00;99.90;;;;;;5031318;28;21229;-73
2023/12/25 11:36:51;;;;;;;1.67;1.67;;;12.10;99.90;;;;;;5033951;28;20460;-74
2023/12/25 11:39:18;;;;;;;1.77;1.77;;;12.10;99.90;;;;;;5028775;28;21316;-72
2023/12/25 11:41:46;;;;;;;1.70;1.70;;;12.10;99.90;;;;;;5033482;28;20457;-72
2023/12/25 11:44:17;;;;;;;1.40;1.40;;;12.10;99.90;;;;;;5029253;28;20472;-72
2023/12/25 11:46:47;;;;;;;1.70;1.70;;;12.10;99.90;;;;;;5032296;28;20464;-73
2023/12/25 11:49:15;;;;;;;1.53;1.53;;;12.10;99.90;;;;;;5031231;28;20487;-73
2023/12/25 11:51:46;;;;;;;1.47;1.47;;;12.10;99.90;;;;;;5033213;28;20970;-72
2023/12/25 11:54:14;;;;;;;1.57;1.57;;;12.10;99.90;;;;;;5028257;28;20538;-75
2023/12/25 11:56:41;;;;;;;1.50;1.50;;;12.10;99.90;;;;;;5031780;28;20497;-75
2023/12/25 11:59:09;;;;;;;1.30;1.30;;;12.20;99.90;;;;;;5027181;28;20537;-75
2023/12/25 12:01:39;;;;;;;1.40;1.40;;;12.30;99.90;;;;;;5026737;28;20510;-71
2023/12/25 12:04:06;;;;;;;1.50;1.50;;;12.30;99.90;;;;;;5035080;28;20458;-73
2023/12/25 12:06:32;;;;;;;1.40;1.40;;;12.40;99.90;;;;;;5028259;28;20470;-75
2023/12/25 12:09:00;;;;;;;1.60;1.60;;;12.40;99.90;;;;;;5032806;28;20493;-73
2023/12/25 12:11:28;;;;;;;1.70;1.70;;;12.50;99.90;;;;;;5029518;28;20469;-73
2023/12/25 12:13:55;;;;;;;1.97;1.97;;;12.50;99.90;;;;;;5042147;28;20456;-73
2023/12/25 12:16:23;;;;;;;1.70;1.70;;;12.70;99.90;;;;;;5042745;28;21144;-73
2023/12/25 12:18:51;;;;;;;1.90;1.90;;;12.80;99.90;;;;;;5040617;28;21028;-73
2023/12/25 12:21:18;;;;;;;2.00;2.00;;;12.80;99.90;;;;;;5039230;28;20473;-73
2023/12/25 12:23:45;;;;;;;1.80;1.80;;;12.80;99.90;;;;;;5044914;28;20469;-72
2023/12/25 12:26:16;;;;;;;2.10;2.10;;;12.70;99.90;;;;;;5046003;28;20451;-71
2023/12/25 12:28:44;;;;;;;1.67;1.67;;;12.60;99.90;;;;;;5038997;28;20484;-72
2023/12/25 12:31:11;;;;;;;1.63;1.63;;;12.60;99.90;;;;;;5041555;28;20448;-73
2023/12/25 12:33:40;;;;;;;1.80;1.80;;;12.50;99.90;;;;;;5039019;28;21147;-73
2023/12/25 12:36:10;;;;;;;1.63;1.63;;;12.40;99.90;;;;;;5044953;28;20815;-75
2023/12/25 12:38:40;;;;;;;1.50;1.50;;;12.50;99.90;;;;;;5046785;28;20464;-73
2023/12/25 12:41:07;;;;;;;1.10;1.10;;;12.40;99.90;;;;;;5045985;28;20453;-75